sensor_id;sensor_type;location;lat;lon;timestamp;pressure;altitude;pressure_sealevel;temperature;humidity
76746;BME280;65671;49.976;20.038;2023-12-04T00:01:29;98447.59;;;-2.96;100.00
76746;BME280;65671;49.976;20.038;2023-12-04T00:03:54;98451.69;;;-3.03;100.00
76746;BME280;65671;49.976;20.038;2023-12-04T00:06:21;98446.81;;;-2.83;100.00
76746;BME280;65671;49.976;20.038;2023-12-04T00:08:46;98456.94;;;-2.85;100.00
76746;BME280;65671;49.976;20.038;2023-12-04T00:11:12;98447.41;;;-2.86;100.00
76746;BME280;65671;49.976;20.038;2023-12-04T00:13:38;98456.44;;;-2.87;100.00
76746;BME280;65671;49.976;20.038;2023-12-04T00:16:03;98455.75;;;-2.78;100.00
76746;BME280;65671;49.976;20.038;2023-12-04T00:18:29;98447.59;;;-2.96;100.00
76746;BME280;65671;49.976;20.038;2023-12-04T00:20:55;98450.94;;;-2.90;100.00
76746;BME280;65671;49.976;20.038;2023-12-04T00:23:20;98456.63;;;-2.83;100.00
76746;BME280;65671;49.976;20.038;2023-12-04T00:25:49;98453.59;;;-2.90;100.00
76746;BME280;65671;49.976;20.038;2023-12-04T00:28:15;98452.13;;;-2.83;100.00
76746;BME280;65671;49.976;20.038;2023-12-04T00:30:40;98453.28;;;-3.02;100.00
76746;BME280;65671;49.976;20.038;2023-12-04T00:33:06;98454.97;;;-2.79;100.00
76746;BME280;65671;49.976;20.038;2023-12-04T00:35:31;98457.03;;;-2.90;100.00
76746;BME280;65671;49.976;20.038;2023-12-04T00:37:57;98454.97;;;-2.79;100.00
76746;BME280;65671;49.976;20.038;2023-12-04T00:40:22;98454.44;;;-2.95;100.00
76746;BME280;65671;49.976;20.038;2023-12-04T00:42:48;98455.75;;;-2.78;100.00
76746;BME280;65671;49.976;20.038;2023-12-04T00:45:14;98457.19;;;-3.00;100.00
76746;BME280;65671;49.976;20.038;2023-12-04T00:47:42;98453.41;;;-2.80;100.00
76746;BME280;65671;49.976;20.038;2023-12-04T00:50:08;98452.50;;;-2.89;100.00
76746;BME280;65671;49.976;20.038;2023-12-04T00:52:33;98458.50;;;-2.84;100.00
76746;BME280;65671;49.976;20.038;2023-12-04T00:54:59;98460.91;;;-3.01;100.00
76746;BME280;65671;49.976;20.038;2023-12-04T00:57:25;98460.53;;;-2.94;100.00
76746;BME280;65671;49.976;20.038;2023-12-04T00:59:50;98459.16;;;-3.05;100.00
76746;BME280;65671;49.976;20.038;2023-12-04T01:02:16;98462.13;;;-2.93;100.00
76746;BME280;65671;49.976;20.038;2023-12-04T01:04:41;98463.50;;;-2.96;100.00
76746;BME280;65671;49.976;20.038;2023-12-04T01:07:07;98461.91;;;-2.97;100.00
76746;BME280;65671;49.976;20.038;2023-12-04T01:09:36;98461.34;;;-2.94;100.00
76746;BME280;65671;49.976;20.038;2023-12-04T01:12:02;98466.41;;;-3.11;100.00
76746;BME280;65671;49.976;20.038;2023-12-04T01:14:28;98457.88;;;-3.08;100.00
76746;BME280;65671;49.976;20.038;2023-12-04T01:16:53;98462.06;;;-3.20;100.00
76746;BME280;65671;49.976;20.038;2023-12-04T01:19:21;98462.66;;;-3.10;100.00
76746;BME280;65671;49.976;20.038;2023-12-04T01:21:46;98457.56;;;-3.20;100.00
76746;BME280;65671;49.976;20.038;2023-12-04T01:24:14;98462.34;;;-3.22;100.00
76746;BME280;65671;49.976;20.038;2023-12-04T01:26:40;98471.94;;;-3.26;100.00
76746;BME280;65671;49.976;20.038;2023-12-04T01:29:06;98462.09;;;-3.39;100.00
76746;BME280;65671;49.976;20.038;2023-12-04T01:31:32;98454.34;;;-3.35;100.00
76746;BME280;65671;49.976;20.038;2023-12-04T01:33:57;98454.47;;;-3.59;100.00
76746;BME280;65671;49.976;20.038;2023-12-04T01:36:23;98463.09;;;-3.54;100.00
76746;BME280;65671;49.976;20.038;2023-12-04T01:38:48;98460.91;;;-3.65;100.00
76746;BME280;65671;49.976;20.038;2023-12-04T01:41:17;98457.78;;;-3.86;100.00
76746;BME280;65671;49.976;20.038;2023-12-04T01:43:42;98454.06;;;-3.66;100.00
76746;BME280;65671;49.976;20.038;2023-12-04T01:46:12;98455.47;;;-3.74;100.00
76746;BME280;65671;49.976;20.038;2023-12-04T01:48:38;98456.00;;;-3.90;100.00
76746;BME280;65671;49.976;20.038;2023-12-04T01:51:07;98451.19;;;-3.88;100.00
76746;BME280;65671;49.976;20.038;2023-12-04T01:53:36;98449.84;;;-4.05;100.00
76746;BME280;65671;49.976;20.038;2023-12-04T01:56:04;98440.41;;;-4.11;100.00
76746;BME280;65671;49.976;20.038;2023-12-04T01:58:30;98440.41;;;-4.11;100.00
76746;BME280;65671;49.976;20.038;2023-12-04T02:00:57;98438.44;;;-4.24;100.00
76746;BME280;65671;49.976;20.038;2023-12-04T02:03:22;98440.47;;;-4.16;100.00
76746;BME280;65671;49.976;20.038;2023-12-04T02:05:51;98439.41;;;-4.15;100.00
76746;BME280;65671;49.976;20.038;2023-12-04T02:08:17;98436.31;;;-4.22;100.00
76746;BME280;65671;49.976;20.038;2023-12-04T02:10:42;98434.44;;;-4.40;100.00
76746;BME280;65671;49.976;20.038;2023-12-04T02:13:08;98427.09;;;-4.43;100.00
76746;BME280;65671;49.976;20.038;2023-12-04T02:15:34;98429.16;;;-4.40;100.00
76746;BME280;65671;49.976;20.038;2023-12-04T02:18:01;98437.25;;;-4.31;100.00
76746;BME280;65671;49.976;20.038;2023-12-04T02:20:34;98436.88;;;-4.43;100.00
76746;BME280;65671;49.976;20.038;2023-12-04T02:23:03;98438.31;;;-4.32;100.00
76746;BME280;65671;49.976;20.038;2023-12-04T02:25:29;98439.72;;;-4.40;100.00
76746;BME280;65671;49.976;20.038;2023-12-04T02:27:58;98439.50;;;-4.25;100.00
76746;BME280;65671;49.976;20.038;2023-12-04T02:30:26;98439.13;;;-4.37;100.00
76746;BME280;65671;49.976;20.038;2023-12-04T02:32:55;98432.94;;;-4.46;100.00
76746;BME280;65671;49.976;20.038;2023-12-04T02:35:23;98425.88;;;-4.32;100.00
76746;BME280;65671;49.976;20.038;2023-12-04T02:37:50;98431.72;;;-4.35;100.00
76746;BME280;65671;49.976;20.038;2023-12-04T02:40:16;98437.66;;;-4.24;100.00
76746;BME280;65671;49.976;20.038;2023-12-04T02:42:42;98450.19;;;-4.11;100.00
76746;BME280;65671;49.976;20.038;2023-12-04T02:45:08;98447.81;;;-4.13;100.00
76746;BME280;65671;49.976;20.038;2023-12-04T02:47:33;98447.97;;;-4.04;100.00
76746;BME280;65671;49.976;20.038;2023-12-04T02:49:59;98451.84;;;-3.78;100.00
76746;BME280;65671;49.976;20.038;2023-12-04T02:52:25;98448.59;;;-3.75;100.00
76746;BME280;65671;49.976;20.038;2023-12-04T02:54:50;98456.19;;;-3.50;100.00
76746;BME280;65671;49.976;20.038;2023-12-04T02:57:16;98460.78;;;-3.23;100.00
76746;BME280;65671;49.976;20.038;2023-12-04T02:59:41;98448.22;;;-3.31;100.00
76746;BME280;65671;49.976;20.038;2023-12-04T03:02:06;98455.38;;;-3.18;100.00
76746;BME280;65671;49.976;20.038;2023-12-04T03:04:33;98460.19;;;-3.20;100.00
76746;BME280;65671;49.976;20.038;2023-12-04T03:06:59;98458.66;;;-3.07;100.00
76746;BME280;65671;49.976;20.038;2023-12-04T03:09:25;98477.31;;;-2.99;100.00
76746;BME280;65671;49.976;20.038;2023-12-04T03:11:50;98474.03;;;-3.09;100.00
76746;BME280;65671;49.976;20.038;2023-12-04T03:14:16;98471.50;;;-3.01;100.00
76746;BME280;65671;49.976;20.038;2023-12-04T03:16:41;98466.63;;;-2.80;100.00
76746;BME280;65671;49.976;20.038;2023-12-04T03:19:07;98479.72;;;-2.84;100.00
76746;BME280;65671;49.976;20.038;2023-12-04T03:21:32;98478.41;;;-2.86;100.00
76746;BME280;65671;49.976;20.038;2023-12-04T03:23:58;98479.50;;;-2.73;100.00
76746;BME280;65671;49.976;20.038;2023-12-04T03:26:23;98483.53;;;-2.90;100.00
76746;BME280;65671;49.976;20.038;2023-12-04T03:28:49;98486.88;;;-2.70;100.00
76746;BME280;65671;49.976;20.038;2023-12-04T03:31:15;98484.13;;;-2.65;100.00
76746;BME280;65671;49.976;20.038;2023-12-04T03:33:40;98478.94;;;-2.70;100.00
76746;BME280;65671;49.976;20.038;2023-12-04T03:36:06;98481.00;;;-2.67;100.00
76746;BME280;65671;49.976;20.038;2023-12-04T03:38:32;98486.66;;;-2.74;100.00
76746;BME280;65671;49.976;20.038;2023-12-04T03:40:57;98479.81;;;-2.61;100.00
76746;BME280;65671;49.976;20.038;2023-12-04T03:43:23;98473.56;;;-2.52;100.00
76746;BME280;65671;49.976;20.038;2023-12-04T03:45:48;98481.31;;;-2.55;100.00
76746;BME280;65671;49.976;20.038;2023-12-04T03:48:14;98482.56;;;-2.66;100.00
76746;BME280;65671;49.976;20.038;2023-12-04T03:50:39;98479.03;;;-2.62;100.00
76746;BME280;65671;49.976;20.038;2023-12-04T03:53:05;98473.34;;;-2.69;100.00
76746;BME280;65671;49.976;20.038;2023-12-04T03:55:30;98488.47;;;-2.69;100.00
76746;BME280;65671;49.976;20.038;2023-12-04T03:57:57;98483.66;;;-2.67;100.00
76746;BME280;65671;49.976;20.038;2023-12-04T04:00:23;98485.72;;;-2.64;100.00
76746;BME280;65671;49.976;20.038;2023-12-04T04:02:48;98484.44;;;-2.80;100.00
76746;BME280;65671;49.976;20.038;2023-12-04T04:05:14;98481.00;;;-2.67;100.00
76746;BME280;65671;49.976;20.038;2023-12-04T04:07:39;98485.19;;;-2.80;100.00
76746;BME280;65671;49.976;20.038;2023-12-04T04:10:06;98487.44;;;-2.87;100.00
76746;BME280;65671;49.976;20.038;2023-12-04T04:12:32;98493.34;;;-2.76;100.00
76746;BME280;65671;49.976;20.038;2023-12-04T04:14:58;98491.16;;;-2.88;100.00
76746;BME280;65671;49.976;20.038;2023-12-04T04:17:23;98484.97;;;-2.97;100.00
76746;BME280;65671;49.976;20.038;2023-12-04T04:19:54;98492.38;;;-2.80;100.00
76746;BME280;65671;49.976;20.038;2023-12-04T04:22:20;98493.13;;;-2.80;100.00
76746;BME280;65671;49.976;20.038;2023-12-04T04:24:47;98497.28;;;-2.74;100.00
76746;BME280;65671;49.976;20.038;2023-12-04T04:27:13;98498.06;;;-2.87;100.00
76746;BME280;65671;49.976;20.038;2023-12-04T04:29:38;98501.19;;;-2.85;100.00
76746;BME280;65671;49.976;20.038;2023-12-04T04:32:04;98497.25;;;-2.88;100.00
76746;BME280;65671;49.976;20.038;2023-12-04T04:34:30;98501.50;;;-2.59;100.00
76746;BME280;65671;49.976;20.038;2023-12-04T04:36:55;98510.16;;;-2.67;100.00
76746;BME280;65671;49.976;20.038;2023-12-04T04:39:21;98499.44;;;-2.76;100.00
76746;BME280;65671;49.976;20.038;2023-12-04T04:41:46;98509.03;;;-2.80;100.00
76746;BME280;65671;49.976;20.038;2023-12-04T04:44:12;98500.31;;;-2.80;100.00
76746;BME280;65671;49.976;20.038;2023-12-04T04:46:37;98502.47;;;-2.83;100.00
76746;BME280;65671;49.976;20.038;2023-12-04T04:49:03;98502.66;;;-2.79;100.00
76746;BME280;65671;49.976;20.038;2023-12-04T04:51:32;98504.16;;;-2.73;100.00
76746;BME280;65671;49.976;20.038;2023-12-04T04:53:58;98505.91;;;-2.68;100.00
76746;BME280;65671;49.976;20.038;2023-12-04T04:56:23;98509.25;;;-2.76;100.00
76746;BME280;65671;49.976;20.038;2023-12-04T04:58:49;98522.16;;;-2.89;100.00
76746;BME280;65671;49.976;20.038;2023-12-04T05:01:14;98508.22;;;-2.94;100.00
76746;BME280;65671;49.976;20.038;2023-12-04T05:03:40;98512.00;;;-2.82;100.00
76746;BME280;65671;49.976;20.038;2023-12-04T05:06:06;98512.91;;;-2.72;100.00
76746;BME280;65671;49.976;20.038;2023-12-04T05:08:32;98514.34;;;-2.80;100.00
76746;BME280;65671;49.976;20.038;2023-12-04T05:10:57;98509.34;;;-2.82;100.00
76746;BME280;65671;49.976;20.038;2023-12-04T05:13:23;98509.94;;;-2.85;100.00
76746;BME280;65671;49.976;20.038;2023-12-04T05:15:48;98511.94;;;-2.63;100.00
76746;BME280;65671;49.976;20.038;2023-12-04T05:18:14;98518.47;;;-2.74;100.00
76746;BME280;65671;49.976;20.038;2023-12-04T05:20:39;98518.09;;;-2.81;100.00
76746;BME280;65671;49.976;20.038;2023-12-04T05:23:05;98508.66;;;-2.73;100.00
76746;BME280;65671;49.976;20.038;2023-12-04T05:25:30;98514.06;;;-2.78;100.00
76746;BME280;65671;49.976;20.038;2023-12-04T05:27:56;98503.88;;;-2.58;100.00
76746;BME280;65671;49.976;20.038;2023-12-04T05:30:21;98508.50;;;-2.63;100.00
76746;BME280;65671;49.976;20.038;2023-12-04T05:32:47;98505.81;;;-2.77;100.00
76746;BME280;65671;49.976;20.038;2023-12-04T05:35:15;98510.19;;;-2.86;100.00
76746;BME280;65671;49.976;20.038;2023-12-04T05:37:41;98501.97;;;-2.85;100.00
76746;BME280;65671;49.976;20.038;2023-12-04T05:40:07;98507.41;;;-3.08;100.00
76746;BME280;65671;49.976;20.038;2023-12-04T05:42:33;98502.91;;;-3.08;100.00
76746;BME280;65671;49.976;20.038;2023-12-04T05:44:58;98507.84;;;-2.88;100.00
76746;BME280;65671;49.976;20.038;2023-12-04T05:47:26;98506.22;;;-2.84;100.00
76746;BME280;65671;49.976;20.038;2023-12-04T05:49:51;98508.44;;;-2.91;100.00
76746;BME280;65671;49.976;20.038;2023-12-04T05:52:17;98507.28;;;-2.85;100.00
76746;BME280;65671;49.976;20.038;2023-12-04T05:54:42;98513.13;;;-3.01;100.00
76746;BME280;65671;49.976;20.038;2023-12-04T05:57:08;98503.03;;;-2.86;100.00
76746;BME280;65671;49.976;20.038;2023-12-04T05:59:33;98510.38;;;-2.96;100.00
76746;BME280;65671;49.976;20.038;2023-12-04T06:01:59;98501.75;;;-3.02;100.00
76746;BME280;65671;49.976;20.038;2023-12-04T06:04:25;98507.06;;;-2.88;100.00
76746;BME280;65671;49.976;20.038;2023-12-04T06:06:50;98512.41;;;-3.07;100.00
76746;BME280;65671;49.976;20.038;2023-12-04T06:09:16;98514.31;;;-2.94;100.00
76746;BME280;65671;49.976;20.038;2023-12-04T06:11:42;98526.88;;;-2.86;100.00
76746;BME280;65671;49.976;20.038;2023-12-04T06:14:07;98522.88;;;-2.83;100.00
76746;BME280;65671;49.976;20.038;2023-12-04T06:16:33;98523.28;;;-2.90;100.00
76746;BME280;65671;49.976;20.038;2023-12-04T06:18:58;98520.78;;;-2.86;100.00
76746;BME280;65671;49.976;20.038;2023-12-04T06:21:24;98513.16;;;-2.88;100.00
76746;BME280;65671;49.976;20.038;2023-12-04T06:23:50;98528.41;;;-2.66;100.00
76746;BME280;65671;49.976;20.038;2023-12-04T06:26:15;98515.31;;;-2.90;100.00
76746;BME280;65671;49.976;20.038;2023-12-04T06:28:43;98528.22;;;-2.69;100.00
76746;BME280;65671;49.976;20.038;2023-12-04T06:31:10;98526.28;;;-2.96;100.00
76746;BME280;65671;49.976;20.038;2023-12-04T06:33:36;98521.13;;;-2.74;100.00
76746;BME280;65671;49.976;20.038;2023-12-04T06:36:02;98533.34;;;-2.92;100.00
76746;BME280;65671;49.976;20.038;2023-12-04T06:38:27;98524.19;;;-2.80;100.00
76746;BME280;65671;49.976;20.038;2023-12-04T06:40:57;98532.84;;;-2.61;100.00
76746;BME280;65671;49.976;20.038;2023-12-04T06:43:23;98519.31;;;-2.60;100.00
76746;BME280;65671;49.976;20.038;2023-12-04T06:45:48;98526.28;;;-2.37;100.00
76746;BME280;65671;49.976;20.038;2023-12-04T06:48:15;98512.59;;;-2.71;100.00
76746;BME280;65671;49.976;20.038;2023-12-04T06:50:40;98515.75;;;-2.55;100.00
76746;BME280;65671;49.976;20.038;2023-12-04T06:53:06;98513.31;;;-2.38;100.00
76746;BME280;65671;49.976;20.038;2023-12-04T06:55:32;98528.13;;;-2.51;100.00
76746;BME280;65671;49.976;20.038;2023-12-04T06:57:57;98527.94;;;-2.54;100.00
76746;BME280;65671;49.976;20.038;2023-12-04T07:00:23;98527.47;;;-2.29;100.00
76746;BME280;65671;49.976;20.038;2023-12-04T07:02:49;98527.06;;;-2.50;100.00
76746;BME280;65671;49.976;20.038;2023-12-04T07:05:15;98523.13;;;-2.52;100.00
76746;BME280;65671;49.976;20.038;2023-12-04T07:07:41;98518.94;;;-2.40;100.00
76746;BME280;65671;49.976;20.038;2023-12-04T07:10:07;98521.47;;;-2.35;100.00
76746;BME280;65671;49.976;20.038;2023-12-04T07:12:33;98526.88;;;-2.12;100.00
76746;BME280;65671;49.976;20.038;2023-12-04T07:14:58;98535.03;;;-2.22;100.00
76746;BME280;65671;49.976;20.038;2023-12-04T07:17:24;98524.41;;;-2.09;100.00
76746;BME280;65671;49.976;20.038;2023-12-04T07:19:49;98529.63;;;-2.17;100.00
76746;BME280;65671;49.976;20.038;2023-12-04T07:22:15;98530.00;;;-1.97;100.00
76746;BME280;65671;49.976;20.038;2023-12-04T07:24:40;98524.31;;;-1.90;100.00
76746;BME280;65671;49.976;20.038;2023-12-04T07:27:06;98525.97;;;-1.81;100.00
76746;BME280;65671;49.976;20.038;2023-12-04T07:29:32;98522.53;;;-1.95;100.00
76746;BME280;65671;49.976;20.038;2023-12-04T07:31:57;98525.28;;;-2.00;100.00
76746;BME280;65671;49.976;20.038;2023-12-04T07:34:24;98527.66;;;-2.12;100.00
76746;BME280;65671;49.976;20.038;2023-12-04T07:36:49;98521.56;;;-1.99;100.00
76746;BME280;65671;49.976;20.038;2023-12-04T07:39:16;98527.06;;;-1.95;100.00
76746;BME280;65671;49.976;20.038;2023-12-04T07:41:41;98526.75;;;-1.94;100.00
76746;BME280;65671;49.976;20.038;2023-12-04T07:44:07;98528.06;;;-2.05;100.00
76746;BME280;65671;49.976;20.038;2023-12-04T07:46:33;98523.19;;;-1.76;100.00
76746;BME280;65671;49.976;20.038;2023-12-04T07:48:59;98520.97;;;-1.96;100.00
76746;BME280;65671;49.976;20.038;2023-12-04T07:51:24;98516.38;;;-2.04;100.00
76746;BME280;65671;49.976;20.038;2023-12-04T07:53:50;98520.78;;;-1.99;100.00
76746;BME280;65671;49.976;20.038;2023-12-04T07:56:15;98529.91;;;-1.92;100.00
76746;BME280;65671;49.976;20.038;2023-12-04T07:58:41;98526.97;;;-2.31;100.00
76746;BME280;65671;49.976;20.038;2023-12-04T08:01:07;98536.91;;;-2.23;100.00
76746;BME280;65671;49.976;20.038;2023-12-04T08:03:32;98528.25;;;-2.42;100.00
76746;BME280;65671;49.976;20.038;2023-12-04T08:05:58;98536.91;;;-2.23;100.00
76746;BME280;65671;49.976;20.038;2023-12-04T08:08:24;98534.16;;;-2.45;100.00
76746;BME280;65671;49.976;20.038;2023-12-04T08:10:50;98537.31;;;-2.16;99.52
76746;BME280;65671;49.976;20.038;2023-12-04T08:13:16;98541.84;;;-2.62;100.00
76746;BME280;65671;49.976;20.038;2023-12-04T08:15:42;98533.19;;;-2.82;100.00
76746;BME280;65671;49.976;20.038;2023-12-04T08:18:07;98536.81;;;-2.45;99.88
76746;BME280;65671;49.976;20.038;2023-12-04T08:20:33;98539.63;;;-2.55;99.10
76746;BME280;65671;49.976;20.038;2023-12-04T08:22:58;98533.88;;;-2.76;100.00
76746;BME280;65671;49.976;20.038;2023-12-04T08:25:24;98525.94;;;-2.76;100.00
76746;BME280;65671;49.976;20.038;2023-12-04T08:27:50;98531.50;;;-2.77;100.00
76746;BME280;65671;49.976;20.038;2023-12-04T08:30:16;98531.94;;;-2.57;100.00
76746;BME280;65671;49.976;20.038;2023-12-04T08:32:41;98536.19;;;-2.56;100.00
76746;BME280;65671;49.976;20.038;2023-12-04T08:35:07;98528.81;;;-3.05;100.00
76746;BME280;65671;49.976;20.038;2023-12-04T08:37:33;98534.31;;;-3.01;100.00
76746;BME280;65671;49.976;20.038;2023-12-04T08:39:58;98518.22;;;-3.05;100.00
76746;BME280;65671;49.976;20.038;2023-12-04T08:42:24;98530.00;;;-2.51;100.00
76746;BME280;65671;49.976;20.038;2023-12-04T08:44:51;98529.88;;;-2.73;100.00
76746;BME280;65671;49.976;20.038;2023-12-04T08:47:17;98520.78;;;-2.86;100.00
76746;BME280;65671;49.976;20.038;2023-12-04T08:49:43;98534.41;;;-2.60;100.00
76746;BME280;65671;49.976;20.038;2023-12-04T08:52:09;98541.00;;;-2.44;99.82
76746;BME280;65671;49.976;20.038;2023-12-04T08:54:35;98545.03;;;-2.33;98.50
76746;BME280;65671;49.976;20.038;2023-12-04T08:57:00;98547.00;;;-2.98;100.00
76746;BME280;65671;49.976;20.038;2023-12-04T08:59:26;98547.13;;;-2.90;100.00
76746;BME280;65671;49.976;20.038;2023-12-04T09:01:52;98539.56;;;-2.37;99.65
76746;BME280;65671;49.976;20.038;2023-12-04T09:04:17;98539.34;;;-2.27;99.47
76746;BME280;65671;49.976;20.038;2023-12-04T09:06:43;98551.31;;;-2.43;99.93
76746;BME280;65671;49.976;20.038;2023-12-04T09:09:08;98544.59;;;-2.67;100.00
76746;BME280;65671;49.976;20.038;2023-12-04T09:11:34;98541.28;;;-2.59;100.00
76746;BME280;65671;49.976;20.038;2023-12-04T09:13:59;98535.75;;;-2.76;100.00
76746;BME280;65671;49.976;20.038;2023-12-04T09:16:25;98543.84;;;-2.27;99.09
76746;BME280;65671;49.976;20.038;2023-12-04T09:18:50;98537.88;;;-2.46;99.30
76746;BME280;65671;49.976;20.038;2023-12-04T09:21:18;98540.25;;;-2.31;98.83
76746;BME280;65671;49.976;20.038;2023-12-04T09:23:44;98531.19;;;-2.57;99.04
76746;BME280;65671;49.976;20.038;2023-12-04T09:26:15;98539.25;;;-2.35;98.99
76746;BME280;65671;49.976;20.038;2023-12-04T09:28:41;98535.25;;;-2.19;98.82
76746;BME280;65671;49.976;20.038;2023-12-04T09:31:08;98532.56;;;-2.46;100.00
76746;BME280;65671;49.976;20.038;2023-12-04T09:33:34;98518.03;;;-2.08;98.38
76746;BME280;65671;49.976;20.038;2023-12-04T09:35:59;98525.19;;;-1.81;96.54
76746;BME280;65671;49.976;20.038;2023-12-04T09:38:25;98522.31;;;-1.85;97.34
76746;BME280;65671;49.976;20.038;2023-12-04T09:40:52;98515.13;;;-1.71;95.63
76746;BME280;65671;49.976;20.038;2023-12-04T09:43:18;98517.84;;;-1.48;93.53
76746;BME280;65671;49.976;20.038;2023-12-04T09:45:44;98516.38;;;-1.32;93.28
76746;BME280;65671;49.976;20.038;2023-12-04T09:48:10;98514.84;;;-1.83;95.60
76746;BME280;65671;49.976;20.038;2023-12-04T09:50:37;98504.81;;;-1.86;97.37
76746;BME280;65671;49.976;20.038;2023-12-04T09:53:06;98506.25;;;-2.02;96.77
76746;BME280;65671;49.976;20.038;2023-12-04T09:55:35;98504.63;;;-1.40;92.70
76746;BME280;65671;49.976;20.038;2023-12-04T09:58:01;98487.66;;;-2.02;95.28
76746;BME280;65671;49.976;20.038;2023-12-04T10:00:27;98489.31;;;-1.56;94.64
76746;BME280;65671;49.976;20.038;2023-12-04T10:02:53;98482.19;;;-1.47;95.73
76746;BME280;65671;49.976;20.038;2023-12-04T10:05:19;98484.72;;;-1.64;95.85
76746;BME280;65671;49.976;20.038;2023-12-04T10:07:46;98470.72;;;-1.79;94.39
76746;BME280;65671;49.976;20.038;2023-12-04T10:10:12;98479.16;;;-1.77;95.73
76746;BME280;65671;49.976;20.038;2023-12-04T10:12:39;98467.97;;;-1.51;95.03
76746;BME280;65671;49.976;20.038;2023-12-04T10:15:10;98464.84;;;-1.89;97.23
76746;BME280;65671;49.976;20.038;2023-12-04T10:17:38;98461.56;;;-1.73;94.63
76746;BME280;65671;49.976;20.038;2023-12-04T10:20:11;98448.28;;;-1.28;92.86
76746;BME280;65671;49.976;20.038;2023-12-04T10:22:53;98456.94;;;-1.23;93.06
76746;BME280;65671;49.976;20.038;2023-12-04T10:25:19;98455.97;;;-1.85;96.99
76746;BME280;65671;49.976;20.038;2023-12-04T10:27:46;98448.88;;;-1.76;94.87
76746;BME280;65671;49.976;20.038;2023-12-04T10:30:32;98448.88;;;-1.53;94.03
76746;BME280;65671;49.976;20.038;2023-12-04T10:33:01;98453.72;;;-1.55;95.72
76746;BME280;65671;49.976;20.038;2023-12-04T10:35:31;98453.84;;;-1.16;95.35
76746;BME280;65671;49.976;20.038;2023-12-04T10:37:57;98459.66;;;-1.36;92.97
76746;BME280;65671;49.976;20.038;2023-12-04T10:40:27;98448.41;;;-1.11;92.80
76746;BME280;65671;49.976;20.038;2023-12-04T10:43:19;98456.00;;;-1.18;92.02
76746;BME280;65671;49.976;20.038;2023-12-04T10:45:47;98443.94;;;-1.46;96.37
76746;BME280;65671;49.976;20.038;2023-12-04T10:48:14;98437.50;;;-1.32;95.28
76746;BME280;65671;49.976;20.038;2023-12-04T10:50:45;98440.25;;;-0.84;92.82
76746;BME280;65671;49.976;20.038;2023-12-04T10:53:13;98441.97;;;-0.88;90.81
76746;BME280;65671;49.976;20.038;2023-12-04T10:55:40;98436.59;;;-0.66;87.74
76746;BME280;65671;49.976;20.038;2023-12-04T10:58:11;98432.31;;;-0.75;88.46
76746;BME280;65671;49.976;20.038;2023-12-04T11:00:49;98431.22;;;-1.58;95.72
76746;BME280;65671;49.976;20.038;2023-12-04T11:03:21;98419.16;;;-1.64;97.56
76746;BME280;65671;49.976;20.038;2023-12-04T11:05:56;98421.84;;;-1.55;96.37
76746;BME280;65671;49.976;20.038;2023-12-04T11:08:22;98417.75;;;-1.61;95.92
76746;BME280;65671;49.976;20.038;2023-12-04T11:11:19;98420.72;;;-1.19;93.88
76746;BME280;65671;49.976;20.038;2023-12-04T11:13:54;98416.41;;;-1.28;94.33
76746;BME280;65671;49.976;20.038;2023-12-04T11:19:01;98410.63;;;-1.52;94.41
76746;BME280;65671;49.976;20.038;2023-12-04T11:21:28;98411.38;;;-1.60;94.14
76746;BME280;65671;49.976;20.038;2023-12-04T11:23:57;98406.31;;;-1.48;95.87
76746;BME280;65671;49.976;20.038;2023-12-04T11:26:24;98398.38;;;-1.09;93.59
76746;BME280;65671;49.976;20.038;2023-12-04T11:28:51;98411.84;;;-0.75;90.76
76746;BME280;65671;49.976;20.038;2023-12-04T11:31:17;98395.78;;;-1.31;94.83
76746;BME280;65671;49.976;20.038;2023-12-04T11:33:43;98401.66;;;-1.12;94.03
76746;BME280;65671;49.976;20.038;2023-12-04T11:36:11;98402.25;;;-1.15;93.77
76746;BME280;65671;49.976;20.038;2023-12-04T11:38:38;98398.00;;;-1.25;93.48
76746;BME280;65671;49.976;20.038;2023-12-04T11:41:19;98390.47;;;-1.00;91.92
76746;BME280;65671;49.976;20.038;2023-12-04T11:43:46;98384.50;;;-1.06;90.63
76746;BME280;65671;49.976;20.038;2023-12-04T11:46:13;98389.16;;;-1.12;90.89
76746;BME280;65671;49.976;20.038;2023-12-04T11:48:47;98381.06;;;-1.06;91.38
76746;BME280;65671;49.976;20.038;2023-12-04T11:51:15;98388.94;;;-0.93;88.73
76746;BME280;65671;49.976;20.038;2023-12-04T11:54:00;98384.34;;;-1.09;92.14
76746;BME280;65671;49.976;20.038;2023-12-04T11:56:28;98375.09;;;-1.12;92.68
76746;BME280;65671;49.976;20.038;2023-12-04T11:59:05;98371.31;;;-1.20;90.77
76746;BME280;65671;49.976;20.038;2023-12-04T12:01:38;98369.31;;;-1.45;93.29
76746;BME280;65671;49.976;20.038;2023-12-04T12:04:08;98360.94;;;-1.60;94.18
76746;BME280;65671;49.976;20.038;2023-12-04T12:06:35;98366.16;;;-1.47;92.81
76746;BME280;65671;49.976;20.038;2023-12-04T12:09:01;98367.41;;;-0.83;91.76
76746;BME280;65671;49.976;20.038;2023-12-04T12:11:28;98365.88;;;-0.67;89.80
76746;BME280;65671;49.976;20.038;2023-12-04T12:13:54;98360.31;;;-0.39;88.26
76746;BME280;65671;49.976;20.038;2023-12-04T12:16:20;98366.72;;;-0.49;87.33
76746;BME280;65671;49.976;20.038;2023-12-04T12:18:46;98358.38;;;-0.56;88.38
76746;BME280;65671;49.976;20.038;2023-12-04T12:21:12;98349.13;;;-0.76;89.03
76746;BME280;65671;49.976;20.038;2023-12-04T12:23:39;98347.13;;;-1.09;89.53
76746;BME280;65671;49.976;20.038;2023-12-04T12:26:05;98353.41;;;-0.97;89.20
76746;BME280;65671;49.976;20.038;2023-12-04T12:28:31;98344.03;;;-0.94;90.51
76746;BME280;65671;49.976;20.038;2023-12-04T12:31:02;98349.06;;;-0.93;89.13
76746;BME280;65671;49.976;20.038;2023-12-04T12:33:28;98349.78;;;-1.09;88.74
76746;BME280;65671;49.976;20.038;2023-12-04T12:35:56;98341.91;;;-1.23;91.86
76746;BME280;65671;49.976;20.038;2023-12-04T12:38:22;98342.72;;;-1.14;93.78
76746;BME280;65671;49.976;20.038;2023-12-04T12:40:48;98330.13;;;-1.00;93.54
76746;BME280;65671;49.976;20.038;2023-12-04T12:43:14;98327.19;;;-0.90;92.73